Time;durP1;ratioP1;P1;durP2;ratioP2;P2;SDS_P1;SDS_P2;PMS_P1;PMS_P2;Temp;Humidity;BMP_temperature;BMP_pressure;BME280_temperature;BME280_humidity;BME280_pressure;Samples;Min_cycle;Max_cycle;Signal;HPM_P1;HPM_P2
2023/06/11 00:02:00;;;;;;;6.20;5.80;;;;;;;14.61;100.00;96928.06;5030100;28;20214;-67
2023/06/11 00:04:34;;;;;;;7.23;6.63;;;;;;;14.41;100.00;96918.34;5048938;28;20226;-65
2023/06/11 00:07:05;;;;;;;6.33;5.97;;;;;;;14.52;100.00;96940.00;5003694;28;20286;-66
2023/06/11 00:09:33;;;;;;;6.27;5.87;;;;;;;14.41;100.00;96933.53;5047925;28;20227;-66
2023/06/11 00:12:01;;;;;;;6.47;6.07;;;;;;;14.42;100.00;96943.94;5049697;28;20349;-65
2023/06/11 00:14:30;;;;;;;6.90;6.40;;;;;;;14.44;100.00;96943.75;5029375;28;20230;-65
2023/06/11 00:16:57;;;;;;;6.83;6.43;;;;;;;14.42;100.00;96940.47;5020144;28;20344;-66
2023/06/11 00:19:28;;;;;;;7.33;6.83;;;;;;;14.43;100.00;96934.13;5045507;28;20956;-66
2023/06/11 00:21:56;;;;;;;7.13;6.63;;;;;;;14.47;100.00;96936.13;5007892;28;20311;-65
2023/06/11 00:24:24;;;;;;;7.50;7.00;;;;;;;14.45;100.00;96934.72;5049629;28;20867;-67
2023/06/11 00:26:52;;;;;;;6.80;6.30;;;;;;;14.43;100.00;96942.91;5048156;28;20206;-65
2023/06/11 00:29:20;;;;;;;7.57;6.90;;;;;;;14.43;100.00;96939.44;5025631;28;20302;-67
2023/06/11 00:31:49;;;;;;;6.93;6.43;;;;;;;14.47;100.00;96949.44;5026852;28;20386;-67
2023/06/11 00:34:16;;;;;;;7.73;7.13;;;;;;;14.50;100.00;96942.06;5048676;28;20248;-66
2023/06/11 00:36:44;;;;;;;7.23;6.63;;;;;;;14.44;100.00;96947.22;5027141;28;20941;-65
2023/06/11 00:39:14;;;;;;;7.27;6.77;;;;;;;14.39;100.00;96936.38;5027333;28;20675;-66
2023/06/11 00:41:45;;;;;;;7.47;7.03;;;;;;;14.33;100.00;96945.25;5048754;28;20817;-66
2023/06/11 00:44:17;;;;;;;7.47;6.97;;;;;;;14.27;100.00;96943.44;5022838;28;21729;-67
2023/06/11 00:46:47;;;;;;;7.27;6.87;;;;;;;14.07;100.00;96917.69;5040682;28;20206;-65
2023/06/11 00:49:16;;;;;;;7.00;6.60;;;;;;;14.11;100.00;96942.09;5044243;28;20824;-66
2023/06/11 00:51:45;;;;;;;7.43;6.93;;;;;;;14.06;100.00;96942.72;5046947;28;20262;-68
2023/06/11 00:54:16;;;;;;;7.17;6.67;;;;;;;13.96;100.00;96932.50;4995646;28;20752;-66
2023/06/11 00:56:43;;;;;;;7.40;6.90;;;;;;;13.98;100.00;96940.28;5045303;28;20423;-65
2023/06/11 00:59:12;;;;;;;7.37;6.87;;;;;;;13.95;100.00;96946.03;5025870;28;20260;-65
2023/06/11 01:01:43;;;;;;;7.40;6.90;;;;;;;13.97;100.00;96949.31;5037107;28;20227;-65
2023/06/11 01:04:13;;;;;;;6.90;6.50;;;;;;;13.87;100.00;96949.75;5023199;28;20285;-65
2023/06/11 01:06:46;;;;;;;7.20;6.77;;;;;;;13.86;100.00;96948.94;5050744;28;20199;-65
2023/06/11 01:09:13;;;;;;;7.73;7.23;;;;;;;13.78;100.00;96946.50;4995259;28;20307;-66
2023/06/11 01:11:41;;;;;;;7.03;6.63;;;;;;;13.81;100.00;96947.94;5049256;28;20235;-67
2023/06/11 01:14:12;;;;;;;7.70;7.07;;;;;;;13.68;100.00;96932.81;5034166;28;20773;-63
2023/06/11 01:16:45;;;;;;;7.27;6.83;;;;;;;13.73;100.00;96955.13;5045596;28;20198;-67
2023/06/11 01:19:29;;;;;;;7.23;6.73;;;;;;;13.72;100.00;96950.00;5028596;28;20211;-67
2023/06/11 01:22:01;;;;;;;8.07;7.40;;;;;;;13.67;100.00;96955.16;5056682;28;20211;-69
2023/06/11 01:24:40;;;;;;;7.97;7.47;;;;;;;13.60;100.00;96963.97;5001262;28;21141;-67
2023/06/11 01:27:11;;;;;;;8.20;7.70;;;;;;;13.59;100.00;96957.00;5049321;28;20280;-67
2023/06/11 01:29:45;;;;;;;7.70;7.20;;;;;;;13.54;100.00;96942.69;5045901;28;20229;-68
2023/06/11 01:32:13;;;;;;;8.00;7.50;;;;;;;13.53;100.00;96954.34;5029837;28;20652;-67
2023/06/11 01:34:41;;;;;;;8.97;8.27;;;;;;;13.49;100.00;96956.63;5035926;28;20295;-67
2023/06/11 01:37:11;;;;;;;9.20;8.53;;;;;;;13.47;100.00;96961.34;5052544;28;20207;-67
2023/06/11 01:39:39;;;;;;;8.47;7.97;;;;;;;13.46;100.00;96963.19;4997795;28;20903;-66
2023/06/11 01:42:08;;;;;;;9.57;8.87;;;;;;;13.48;100.00;96962.16;5050934;28;20311;-65
2023/06/11 01:44:35;;;;;;;9.20;8.60;;;;;;;13.50;100.00;96966.25;5049533;28;20234;-65
2023/06/11 01:47:05;;;;;;;8.37;7.87;;;;;;;13.50;100.00;96970.75;5030693;28;20652;-66
2023/06/11 01:49:33;;;;;;;9.63;8.73;;;;;;;13.52;100.00;96969.53;5033874;28;20221;-67
2023/06/11 01:52:00;;;;;;;8.90;8.40;;;;;;;13.53;100.00;96971.16;5048781;28;20211;-67
2023/06/11 01:54:28;;;;;;;9.53;8.83;;;;;;;13.54;100.00;96967.47;5045869;28;20522;-66
2023/06/11 01:56:55;;;;;;;9.47;8.87;;;;;;;13.51;100.00;96961.72;5001868;28;20309;-65
2023/06/11 01:59:23;;;;;;;9.23;8.53;;;;;;;13.47;100.00;96964.00;5046113;28;20840;-66
2023/06/11 02:01:53;;;;;;;8.67;8.17;;;;;;;13.44;100.00;96969.72;5031888;28;20222;-66
2023/06/11 02:04:23;;;;;;;8.97;8.17;;;;;;;13.40;100.00;96966.66;5048639;28;20219;-65
2023/06/11 02:06:50;;;;;;;9.73;9.03;;;;;;;13.40;100.00;96965.81;5027762;28;20246;-66
2023/06/11 02:09:18;;;;;;;9.57;8.70;;;;;;;13.34;100.00;96959.50;5049582;28;20857;-66
2023/06/11 02:11:46;;;;;;;10.17;9.47;;;;;;;13.27;100.00;96956.84;4997192;28;20215;-66
2023/06/11 02:14:13;;;;;;;10.07;9.37;;;;;;;13.23;100.00;96965.44;5044662;28;20313;-66
2023/06/11 02:16:41;;;;;;;9.63;8.83;;;;;;;13.22;100.00;96959.31;5051521;28;20633;-64
2023/06/11 02:19:08;;;;;;;9.70;9.07;;;;;;;13.12;100.00;96964.22;5029415;28;20203;-65
2023/06/11 02:21:37;;;;;;;9.43;8.73;;;;;;;13.09;100.00;96956.66;5031729;28;20223;-64
2023/06/11 02:24:05;;;;;;;9.97;9.07;;;;;;;13.02;100.00;96969.94;5032204;28;20234;-65
2023/06/11 02:26:33;;;;;;;10.00;9.30;;;;;;;13.04;100.00;96967.91;4993615;28;21137;-64
2023/06/11 02:29:01;;;;;;;10.20;9.50;;;;;;;13.00;100.00;96972.81;5049001;28;20217;-67
2023/06/11 02:31:28;;;;;;;10.17;9.47;;;;;;;12.97;100.00;96967.09;5048309;28;20268;-66
2023/06/11 02:33:56;;;;;;;8.70;8.20;;;;;;;12.95;100.00;96969.13;5027926;28;20257;-66
2023/06/11 02:36:24;;;;;;;9.77;9.07;;;;;;;12.96;100.00;96976.09;5026681;28;20721;-67
2023/06/11 02:38:53;;;;;;;10.03;9.13;;;;;;;12.92;100.00;96967.69;5045464;28;20457;-67
2023/06/11 02:41:20;;;;;;;10.47;9.77;;;;;;;12.95;100.00;96979.78;5050197;28;20487;-67
2023/06/11 02:43:48;;;;;;;10.00;9.30;;;;;;;12.94;100.00;96981.59;4998405;28;20214;-66
2023/06/11 02:46:16;;;;;;;9.97;9.17;;;;;;;12.91;100.00;96984.66;5046506;28;20235;-66
2023/06/11 02:48:44;;;;;;;10.30;9.50;;;;;;;12.94;100.00;96980.81;5033010;28;20206;-64
2023/06/11 02:51:11;;;;;;;10.10;9.40;;;;;;;12.92;100.00;96983.66;5029909;28;20206;-67
2023/06/11 02:53:39;;;;;;;10.13;9.43;;;;;;;12.83;100.00;96984.88;5046262;28;20223;-65
2023/06/11 02:56:08;;;;;;;10.50;9.70;;;;;;;12.82;100.00;96985.91;5050186;28;20268;-66
2023/06/11 02:58:35;;;;;;;10.43;9.73;;;;;;;12.82;100.00;96991.22;4998442;28;20758;-68
2023/06/11 03:01:03;;;;;;;10.07;9.37;;;;;;;12.76;100.00;96981.41;5048671;28;20913;-66
2023/06/11 03:03:30;;;;;;;9.53;8.83;;;;;;;12.74;100.00;96989.56;5029604;28;20470;-66
2023/06/11 03:05:58;;;;;;;9.83;9.23;;;;;;;12.71;100.00;96989.97;5049175;28;20223;-66
2023/06/11 03:08:28;;;;;;;11.03;10.33;;;;;;;12.72;100.00;96992.44;5032207;28;20282;-66
2023/06/11 03:10:56;;;;;;;10.67;9.87;;;;;;;12.68;100.00;96987.72;5036772;28;20231;-65
2023/06/11 03:13:25;;;;;;;10.20;9.47;;;;;;;12.67;100.00;96984.22;4991485;28;21315;-64
2023/06/11 03:15:52;;;;;;;10.87;10.07;;;;;;;12.69;100.00;96995.50;5027447;28;20334;-66
2023/06/11 03:18:20;;;;;;;11.27;10.47;;;;;;;12.69;100.00;96995.50;5048309;28;20989;-63
2023/06/11 03:20:48;;;;;;;11.77;10.83;;;;;;;12.72;100.00;96992.44;5029962;28;20474;-63
2023/06/11 03:23:16;;;;;;;10.63;9.93;;;;;;;12.71;100.00;96993.47;5025039;28;20697;-61
2023/06/11 03:25:44;;;;;;;11.80;11.00;;;;;;;12.76;100.00;97000.00;5045598;28;20230;-62
2023/06/11 03:28:12;;;;;;;10.23;9.53;;;;;;;12.79;100.00;96997.75;5047804;28;20726;-62
2023/06/11 03:30:41;;;;;;;11.23;10.43;;;;;;;12.72;100.00;96978.31;4975804;28;20344;-62
2023/06/11 03:33:08;;;;;;;11.03;10.23;;;;;;;12.84;100.00;97003.28;5050937;28;20257;-63
2023/06/11 03:35:36;;;;;;;11.33;10.37;;;;;;;12.81;100.00;97001.00;5025667;28;20245;-65
2023/06/11 03:38:03;;;;;;;12.00;11.00;;;;;;;12.77;100.00;97005.09;5026781;28;20679;-66
2023/06/11 03:40:31;;;;;;;13.13;12.10;;;;;;;12.76;100.00;97000.81;5044637;28;20644;-66
2023/06/11 03:42:58;;;;;;;12.20;11.30;;;;;;;12.73;100.00;97004.72;5042628;28;20989;-65
2023/06/11 03:45:27;;;;;;;12.87;11.87;;;;;;;12.75;100.00;97007.16;4990579;28;20229;-64
2023/06/11 03:47:57;;;;;;;12.10;11.10;;;;;;;12.85;100.00;97004.91;5033484;28;20470;-67
2023/06/11 03:50:25;;;;;;;12.53;11.63;;;;;;;12.90;100.00;97006.97;5048177;28;20202;-66
2023/06/11 03:52:53;;;;;;;12.13;11.33;;;;;;;12.92;100.00;97006.78;5003394;28;20742;-64
2023/06/11 03:55:20;;;;;;;12.90;12.00;;;;;;;12.97;100.00;97015.75;5046963;28;20229;-66
2023/06/11 03:57:48;;;;;;;12.63;11.43;;;;;;;13.03;100.00;97012.28;5023143;28;21113;-66
2023/06/11 04:00:16;;;;;;;10.77;10.07;;;;;;;13.05;100.00;97012.09;5041374;28;20282;-66
2023/06/11 04:02:44;;;;;;;11.90;10.97;;;;;;;13.09;100.00;97015.19;4992265;28;20222;-67
2023/06/11 04:05:13;;;;;;;12.47;11.57;;;;;;;13.13;100.00;97006.56;5053286;28;20325;-65
2023/06/11 04:07:40;;;;;;;12.23;11.17;;;;;;;13.21;100.00;97012.69;5000810;28;20202;-64
2023/06/11 04:10:08;;;;;;;12.03;11.30;;;;;;;13.28;100.00;97014.34;5044553;28;20225;-66
2023/06/11 04:12:36;;;;;;;12.03;11.13;;;;;;;13.41;100.00;97015.34;5044254;28;20214;-64
2023/06/11 04:15:04;;;;;;;12.37;11.50;;;;;;;13.48;100.00;97008.22;5041993;28;20246;-66
2023/06/11 04:17:32;;;;;;;12.37;11.50;;;;;;;13.54;100.00;97004.75;4963249;28;20420;-66
2023/06/11 04:20:00;;;;;;;12.27;11.37;;;;;;;13.62;100.00;97013.53;5047774;28;20203;-67
2023/06/11 04:22:29;;;;;;;13.50;12.50;;;;;;;13.76;100.00;97009.78;5008723;28;20465;-67
2023/06/11 04:24:57;;;;;;;12.13;11.30;;;;;;;13.82;100.00;97006.28;5024996;28;20764;-66
2023/06/11 04:27:24;;;;;;;11.53;10.80;;;;;;;13.87;100.00;97001.19;5040852;28;20246;-68
2023/06/11 04:29:56;;;;;;;11.90;11.10;;;;;;;14.03;100.00;97001.72;5023414;28;20210;-68
2023/06/11 04:32:26;;;;;;;12.80;11.73;;;;;;;14.01;100.00;96998.47;5010102;28;20319;-67
2023/06/11 04:34:56;;;;;;;12.83;11.83;;;;;;;14.12;100.00;96992.47;5047086;28;20269;-68
2023/06/11 04:37:24;;;;;;;13.40;12.30;;;;;;;14.22;100.00;96994.69;5024069;28;21398;-67
2023/06/11 04:39:53;;;;;;;11.20;10.23;;;;;;;14.35;100.00;96995.66;5004307;28;20709;-68
2023/06/11 04:42:24;;;;;;;11.97;11.07;;;;;;;14.44;100.00;96997.84;5047173;28;20322;-66
2023/06/11 04:44:52;;;;;;;12.10;11.27;;;;;;;14.54;100.00;96993.91;5044712;28;20757;-66
2023/06/11 04:47:22;;;;;;;11.33;10.43;;;;;;;14.66;100.00;96994.03;5007373;28;21383;-68
2023/06/11 04:49:52;;;;;;;10.30;9.60;;;;;;;14.83;100.00;96991.72;5045582;28;20214;-66
2023/06/11 04:52:21;;;;;;;12.33;11.43;;;;;;;15.02;100.00;97001.44;5046572;28;20207;-68
2023/06/11 04:54:49;;;;;;;11.00;10.27;;;;;;;15.18;100.00;96991.25;5002683;28;20751;-67
2023/06/11 04:57:18;;;;;;;11.20;10.50;;;;;;;15.18;100.00;96991.25;5037364;28;20410;-67
2023/06/11 04:59:49;;;;;;;11.30;10.43;;;;;;;15.37;100.00;96994.78;5049176;28;20743;-68
2023/06/11 05:02:17;;;;;;;11.40;10.70;;;;;;;15.52;100.00;96990.94;4999422;28;21466;-67
2023/06/11 05:04:49;;;;;;;12.00;11.13;;;;;;;15.66;100.00;96992.44;5057581;28;20226;-67
2023/06/11 05:07:17;;;;;;;11.37;10.47;;;;;;;15.77;100.00;96990.91;5039151;28;20208;-66
2023/06/11 05:09:44;;;;;;;10.80;10.10;;;;;;;15.97;100.00;96989.88;5010646;28;20696;-66
2023/06/11 05:12:13;;;;;;;11.57;10.67;;;;;;;15.96;100.00;96986.41;5028890;28;20637;-64
2023/06/11 05:14:42;;;;;;;9.57;8.87;;;;;;;16.05;100.00;96981.56;5027891;28;20223;-65
2023/06/11 05:17:10;;;;;;;11.13;10.23;;;;;;;16.24;100.00;96984.22;5047829;28;20286;-65
2023/06/11 05:19:38;;;;;;;11.07;10.37;;;;;;;16.25;100.00;96983.19;5006410;28;20210;-65
2023/06/11 05:22:06;;;;;;;10.63;9.93;;;;;;;16.35;100.00;96983.44;5053545;28;20720;-65
2023/06/11 05:24:34;;;;;;;10.83;10.03;;;;;;;16.38;100.00;96991.03;5010860;28;20689;-66
2023/06/11 05:27:03;;;;;;;10.93;10.10;;;;;;;16.52;100.00;96988.19;5028162;28;20199;-65
2023/06/11 05:29:31;;;;;;;10.50;9.80;;;;;;;16.61;100.00;96987.63;5041023;28;20898;-66
2023/06/11 05:32:00;;;;;;;10.90;10.10;;;;;;;16.77;100.00;96991.50;5049024;28;20334;-67
2023/06/11 05:34:30;;;;;;;10.83;10.13;;;;;;;16.89;100.00;96988.88;4994435;28;20235;-65
2023/06/11 05:36:57;;;;;;;11.07;10.33;;;;;;;17.00;100.00;96984.63;5043907;28;20242;-65
2023/06/11 05:39:25;;;;;;;10.27;9.43;;;;;;;17.12;100.00;96995.34;5039779;28;20832;-65
2023/06/11 05:41:52;;;;;;;10.50;9.70;;;;;;;17.30;100.00;96990.94;5031852;28;20311;-64
2023/06/11 05:44:20;;;;;;;10.03;9.23;;;;;;;17.44;100.00;96994.19;5026051;28;20303;-65
2023/06/11 05:46:48;;;;;;;10.57;9.67;;;;;;;17.53;100.00;96997.34;5051250;28;20202;-66
2023/06/11 05:49:17;;;;;;;10.43;9.47;;;;;;;17.56;100.00;96996.88;5054915;28;20231;-67
2023/06/11 05:51:44;;;;;;;10.77;9.97;;;;;;;17.76;100.00;96993.84;4995454;28;20207;-64
2023/06/11 05:54:12;;;;;;;10.10;9.40;;;;;;;17.90;100.00;96997.09;5053570;28;20322;-66
2023/06/11 05:56:39;;;;;;;9.97;9.37;;;;;;;17.92;100.00;96992.31;4982546;28;20886;-65
2023/06/11 05:59:07;;;;;;;10.97;9.87;;;;;;;18.03;100.00;96990.69;5026453;28;20298;-63
2023/06/11 06:01:35;;;;;;;11.47;10.30;;;;;;;18.08;100.00;96993.47;5051474;28;20270;-66
2023/06/11 06:04:02;;;;;;;9.83;9.23;;;;;;;18.12;100.00;96991.94;5053175;28;20214;-67
2023/06/11 06:06:32;;;;;;;10.30;9.40;;;;;;;18.23;100.00;96993.75;5002214;28;20877;-66
2023/06/11 06:09:00;;;;;;;10.63;9.57;;;;;;;18.32;100.00;96993.38;5046733;28;20210;-65
2023/06/11 06:11:28;;;;;;;9.57;8.73;;;;;;;18.46;100.00;96991.22;5010121;28;20315;-65
2023/06/11 06:13:56;;;;;;;10.50;9.73;;;;;;;18.58;100.00;96994.69;4977904;28;20562;-66
2023/06/11 06:16:24;;;;;;;10.10;9.17;;;;;;;18.92;100.00;96996.63;5049200;28;20203;-64
2023/06/11 06:18:55;;;;;;;10.47;9.40;;;;;;;18.93;100.00;96991.00;5050555;28;20364;-66
2023/06/11 06:21:22;;;;;;;9.83;9.03;;;;;;;19.07;100.00;96994.22;4999696;28;21288;-65
2023/06/11 06:23:52;;;;;;;9.33;8.43;;;;;;;19.30;100.00;96992.44;5054000;28;20255;-66
2023/06/11 06:26:19;;;;;;;9.57;8.87;;;;;;;19.27;100.00;96992.09;5007472;28;20811;-66
2023/06/11 06:28:47;;;;;;;9.77;8.97;;;;;;;19.24;100.00;96993.41;5000264;28;20249;-66
2023/06/11 06:31:17;;;;;;;9.17;8.57;;;;;;;19.35;100.00;96989.81;5043112;28;20709;-64
2023/06/11 06:33:44;;;;;;;9.07;8.37;;;;;;;19.42;100.00;96988.81;5053575;28;20203;-66
2023/06/11 06:36:12;;;;;;;9.73;8.93;;;;;;;19.47;100.00;96986.22;5020694;28;20709;-64
2023/06/11 06:38:40;;;;;;;9.27;8.57;;;;;;;19.57;100.00;97002.50;5049918;28;20203;-65
2023/06/11 06:41:09;;;;;;;8.63;7.93;;;;;;;19.58;100.00;96988.00;5016265;28;20676;-65
2023/06/11 06:43:37;;;;;;;8.57;8.03;;;;;;;19.69;100.00;97005.06;5048852;28;20302;-66
2023/06/11 06:46:05;;;;;;;9.27;8.57;;;;;;;19.92;100.00;97006.78;5002326;28;20230;-66
2023/06/11 06:48:33;;;;;;;8.50;7.87;;;;;;;19.98;100.00;97004.97;5048389;28;20484;-64
2023/06/11 06:51:01;;;;;;;7.90;7.30;;;;;;;20.00;100.00;97002.81;5052526;28;20578;-64
2023/06/11 06:53:28;;;;;;;8.67;8.07;;;;;;;20.10;100.00;96986.84;5014890;28;20716;-65
2023/06/11 06:55:58;;;;;;;8.70;8.03;;;;;;;20.13;100.00;96993.59;5032060;28;20356;-66
2023/06/11 06:58:28;;;;;;;8.30;7.80;;;;;;;20.34;100.00;96997.31;5023676;28;20218;-66
2023/06/11 07:00:56;;;;;;;8.73;8.10;;;;;;;20.44;100.00;97002.00;4997184;28;20231;-64
2023/06/11 07:03:24;;;;;;;9.17;8.30;;;;;;;20.33;100.00;97002.97;5044183;28;20664;-64
2023/06/11 07:05:51;;;;;;;9.33;8.73;;;;;;;20.28;100.00;97008.28;5053885;28;20745;-65
2023/06/11 07:08:19;;;;;;;8.57;7.87;;;;;;;20.33;100.00;97001.06;5016029;28;20462;-65
2023/06/11 07:10:49;;;;;;;9.10;8.40;;;;;;;20.27;100.00;97006.63;5049571;28;20304;-65
2023/06/11 07:13:18;;;;;;;9.23;8.53;;;;;;;20.48;100.00;97003.13;5008275;28;20676;-66
2023/06/11 07:15:47;;;;;;;8.53;7.93;;;;;;;20.65;100.00;97000.34;5002737;28;20242;-67
2023/06/11 07:18:15;;;;;;;8.67;7.97;;;;;;;20.76;100.00;97008.53;5042626;28;20407;-66
2023/06/11 07:20:44;;;;;;;8.63;7.83;;;;;;;20.69;100.00;97000.66;5026580;28;20207;-66
2023/06/11 07:23:12;;;;;;;8.27;7.60;;;;;;;20.81;100.00;97005.91;5008809;28;20917;-64
2023/06/11 07:25:43;;;;;;;7.83;7.23;;;;;;;20.84;100.00;97007.28;5048932;28;20310;-64
2023/06/11 07:28:10;;;;;;;8.27;7.77;;;;;;;20.90;100.00;97004.41;4996353;28;20809;-64
2023/06/11 07:30:38;;;;;;;9.00;8.20;;;;;;;21.02;100.00;97006.09;5047659;28;20314;-66
2023/06/11 07:33:07;;;;;;;8.57;7.90;;;;;;;21.09;100.00;97004.84;4989907;28;20353;-65
2023/06/11 07:35:35;;;;;;;7.67;7.13;;;;;;;20.99;100.00;97002.03;5037851;28;20282;-64
2023/06/11 07:38:03;;;;;;;8.43;7.80;;;;;;;20.96;100.00;97007.94;5032223;28;20450;-65
2023/06/11 07:40:30;;;;;;;8.50;7.77;;;;;;;20.91;100.00;97005.19;5018396;28;20301;-64
2023/06/11 07:42:58;;;;;;;7.60;7.07;;;;;;;20.93;100.00;96995.81;5022627;28;20682;-66
2023/06/11 07:45:25;;;;;;;7.93;7.10;;;;;;;21.04;100.00;97010.19;5019098;28;20629;-65
2023/06/11 07:47:53;;;;;;;8.60;7.80;;;;;;;21.08;100.00;97007.78;5002062;28;20219;-66
2023/06/11 07:50:22;;;;;;;7.80;7.30;;;;;;;21.19;100.00;97005.97;5047508;28;20238;-66
2023/06/11 07:52:50;;;;;;;7.20;6.80;;;;;;;21.27;100.00;97005.50;5043770;28;20235;-65
2023/06/11 07:55:17;;;;;;;7.63;7.03;;;;;;;21.26;97.19;97001.19;5017009;28;20315;-66
2023/06/11 07:57:46;;;;;;;7.53;6.93;;;;;;;21.34;97.79;97002.59;5015981;28;20207;-65
2023/06/11 08:00:16;;;;;;;7.67;6.60;;;;;;;21.49;99.48;97002.69;5002082;28;20316;-67
2023/06/11 08:02:44;;;;;;;7.43;6.97;;;;;;;21.71;96.27;97000.97;4972219;28;20698;-65
2023/06/11 08:05:17;;;;;;;7.73;7.03;;;;;;;21.74;91.67;96998.56;5040966;28;20237;-67
2023/06/11 08:07:48;;;;;;;7.63;6.87;;;;;;;21.71;88.40;97000.97;5046236;28;20199;-65
2023/06/11 08:10:15;;;;;;;6.60;6.07;;;;;;;21.83;87.36;97012.38;5028449;28;20256;-64
2023/06/11 08:12:43;;;;;;;7.03;6.23;;;;;;;21.82;85.09;97006.16;4997440;28;20217;-64
2023/06/11 08:15:11;;;;;;;6.57;6.07;;;;;;;21.96;86.25;97005.69;5021242;28;20226;-65
2023/06/11 08:17:39;;;;;;;7.37;6.27;;;;;;;21.96;83.06;97011.91;4977127;28;20612;-63
2023/06/11 08:20:08;;;;;;;6.40;6.00;;;;;;;22.03;82.74;97016.25;5028735;28;20631;-66
2023/06/11 08:22:36;;;;;;;6.63;6.07;;;;;;;22.11;76.79;97005.78;5042515;28;20223;-64
2023/06/11 08:25:06;;;;;;;5.93;5.53;;;;;;;22.13;74.83;97000.09;5023106;28;20226;-66
2023/06/11 08:27:33;;;;;;;6.20;5.60;;;;;;;22.07;72.79;97001.97;5014022;28;20207;-65
2023/06/11 08:30:01;;;;;;;6.13;5.53;;;;;;;22.00;76.15;97005.97;5022895;28;20210;-64
2023/06/11 08:32:28;;;;;;;6.37;5.77;;;;;;;21.90;76.79;97007.56;5000639;28;20209;-65
2023/06/11 08:34:56;;;;;;;6.43;6.00;;;;;;;22.14;73.66;96993.63;4983542;28;20412;-67
2023/06/11 08:37:23;;;;;;;6.60;6.10;;;;;;;22.33;73.89;96993.97;5022861;28;20236;-65
2023/06/11 08:39:51;;;;;;;6.13;5.53;;;;;;;22.60;66.00;96997.59;5026446;28;21084;-66
2023/06/11 08:42:20;;;;;;;6.20;5.70;;;;;;;22.34;63.76;96986.69;5036330;28;20313;-64
2023/06/11 08:44:50;;;;;;;5.80;5.40;;;;;;;22.18;66.04;97002.03;4984081;28;20387;-66
2023/06/11 08:47:17;;;;;;;5.90;5.40;;;;;;;22.23;70.22;97000.16;5002918;28;20290;-64
2023/06/11 08:49:45;;;;;;;6.07;5.50;;;;;;;22.20;69.61;96987.19;4999635;28;21086;-67
2023/06/11 08:52:13;;;;;;;5.33;5.00;;;;;;;22.52;69.94;96983.53;4998747;28;20903;-67
2023/06/11 08:54:41;;;;;;;6.03;5.57;;;;;;;22.82;64.59;96995.47;5048775;28;20923;-66
2023/06/11 08:57:08;;;;;;;5.53;5.13;;;;;;;22.95;62.60;96993.34;5007501;28;20230;-64
2023/06/11 08:59:37;;;;;;;5.37;5.00;;;;;;;23.05;61.36;96998.75;5012600;28;20577;-66
2023/06/11 09:02:06;;;;;;;5.03;4.73;;;;;;;23.01;62.94;96991.44;4983419;28;20315;-65
2023/06/11 09:04:34;;;;;;;5.87;5.53;;;;;;;23.30;59.76;97001.75;5042426;28;20284;-65
2023/06/11 09:07:02;;;;;;;6.27;5.77;;;;;;;23.11;59.21;96986.84;5000791;28;20272;-66
2023/06/11 09:09:30;;;;;;;5.27;4.87;;;;;;;23.19;57.27;96993.63;5041843;28;20203;-66
2023/06/11 09:11:57;;;;;;;5.30;5.00;;;;;;;23.20;56.99;96999.81;5019636;28;20233;-65
2023/06/11 09:14:25;;;;;;;5.90;5.40;;;;;;;23.26;53.46;96996.06;4998928;28;20544;-65
2023/06/11 09:16:54;;;;;;;5.07;4.77;;;;;;;23.10;54.36;97006.03;5025779;28;20225;-65
2023/06/11 09:19:22;;;;;;;5.67;5.17;;;;;;;22.86;56.88;96998.47;5013305;28;20306;-65
2023/06/11 09:21:50;;;;;;;5.37;4.90;;;;;;;22.83;55.77;96997.09;4995143;28;20215;-66
2023/06/11 09:24:19;;;;;;;5.67;5.20;;;;;;;22.91;55.49;96995.75;5040140;28;20292;-65
2023/06/11 09:26:52;;;;;;;5.87;4.73;;;;;;;22.67;55.64;96992.75;5019527;28;20782;-66
2023/06/11 09:29:20;;;;;;;5.43;4.97;;;;;;;22.83;56.10;96990.91;4985530;28;20214;-65
2023/06/11 09:31:48;;;;;;;5.00;4.70;;;;;;;23.00;55.51;96996.03;5028802;28;20441;-65
2023/06/11 09:34:22;;;;;;;4.80;4.50;;;;;;;23.23;56.17;97004.69;5010438;28;20730;-66
2023/06/11 09:36:49;;;;;;;5.53;5.13;;;;;;;23.17;56.96;97000.34;4990267;28;20841;-65
2023/06/11 09:39:17;;;;;;;5.87;5.27;;;;;;;23.36;56.29;96997.94;5046622;28;20265;-64
2023/06/11 09:41:48;;;;;;;5.00;4.60;;;;;;;23.67;55.24;97006.81;5036660;28;20234;-65
2023/06/11 09:44:17;;;;;;;4.77;4.43;;;;;;;23.64;51.21;96993.06;5028381;28;20269;-64
2023/06/11 09:46:45;;;;;;;5.03;4.70;;;;;;;23.96;48.43;97017.03;5027623;28;20563;-67
2023/06/11 09:49:13;;;;;;;4.60;4.20;;;;;;;23.78;43.55;97012.22;5028206;28;20220;-66
2023/06/11 09:51:43;;;;;;;4.43;4.03;;;;;;;23.60;44.38;97011.69;4981506;28;22261;-65
2023/06/11 09:54:12;;;;;;;4.73;4.27;;;;;;;23.53;44.11;97022.00;5021091;28;20457;-67
2023/06/11 09:56:42;;;;;;;4.20;3.93;;;;;;;23.61;46.27;97016.03;5031427;28;20272;-67
2023/06/11 09:59:11;;;;;;;4.60;4.30;;;;;;;23.53;45.06;97017.41;5028477;28;20210;-68
2023/06/11 10:01:40;;;;;;;4.83;4.27;;;;;;;23.51;45.77;97011.47;5011870;28;20227;-68
2023/06/11 10:04:08;;;;;;;4.73;4.37;;;;;;;23.57;44.81;97009.53;5027087;28;20202;-68
2023/06/11 10:06:40;;;;;;;4.87;4.57;;;;;;;23.66;45.47;97012.53;5006304;28;20234;-67
2023/06/11 10:09:11;;;;;;;5.13;4.63;;;;;;;23.52;44.61;96996.88;5003158;28;20222;-66
2023/06/11 10:11:40;;;;;;;4.30;4.00;;;;;;;23.70;46.13;97009.00;5023521;28;20207;-65
2023/06/11 10:14:12;;;;;;;4.73;4.33;;;;;;;23.66;45.30;97012.53;5026490;28;20327;-66
2023/06/11 10:16:39;;;;;;;4.40;4.10;;;;;;;23.70;44.62;97000.88;5022406;28;20288;-65
2023/06/11 10:19:08;;;;;;;4.27;3.97;;;;;;;23.88;46.59;97009.50;5026326;28;20203;-63
2023/06/11 10:21:39;;;;;;;4.10;3.70;;;;;;;24.10;46.05;97011.09;5028781;28;20207;-66
2023/06/11 10:24:09;;;;;;;4.60;4.30;;;;;;;24.22;45.24;97013.47;5001225;28;20218;-65
2023/06/11 10:26:36;;;;;;;4.33;4.03;;;;;;;23.95;43.20;97020.03;5032618;28;20299;-65
2023/06/11 10:29:11;;;;;;;4.63;4.27;;;;;;;24.06;44.01;97012.72;5002241;28;20574;-63
2023/06/11 10:31:39;;;;;;;5.00;4.60;;;;;;;24.13;44.97;97005.13;5021753;28;20199;-64
2023/06/11 10:34:07;;;;;;;4.73;4.43;;;;;;;24.27;44.56;97008.84;5020481;28;20256;-63
2023/06/11 10:36:36;;;;;;;4.93;4.63;;;;;;;24.11;45.64;97012.72;5025306;28;20344;-64
2023/06/11 10:39:05;;;;;;;4.40;4.10;;;;;;;23.89;45.71;97010.31;5002164;28;20239;-64
2023/06/11 10:41:37;;;;;;;4.40;4.20;;;;;;;23.91;45.83;97011.66;5052833;28;20344;-64
2023/06/11 10:44:05;;;;;;;4.30;4.10;;;;;;;24.08;46.48;97003.22;5025160;28;21626;-64
2023/06/11 10:46:32;;;;;;;5.07;4.60;;;;;;;24.09;45.65;97004.06;5048496;28;20350;-65
2023/06/11 10:49:01;;;;;;;4.43;4.10;;;;;;;24.19;46.09;97009.41;5009708;28;20207;-66
2023/06/11 10:51:36;;;;;;;4.80;4.50;;;;;;;24.46;47.21;97007.41;5027438;28;20226;-65
2023/06/11 10:54:07;;;;;;;4.53;4.33;;;;;;;24.49;46.02;97018.50;4998182;28;20221;-66
2023/06/11 10:56:38;;;;;;;5.57;4.57;;;;;;;24.40;46.50;97012.84;5045896;28;20234;-69
2023/06/11 10:59:09;;;;;;;4.97;4.57;;;;;;;23.91;47.79;97006.22;5020391;28;20215;-67
2023/06/11 11:01:37;;;;;;;4.73;4.50;;;;;;;24.13;47.04;97016.75;5030501;28;20258;-67
2023/06/11 11:04:05;;;;;;;4.50;4.17;;;;;;;24.33;46.03;97014.22;5018448;28;20214;-69
2023/06/11 11:06:36;;;;;;;4.80;4.50;;;;;;;24.23;46.50;97002.38;5032512;28;20223;-68
2023/06/11 11:09:05;;;;;;;5.07;4.77;;;;;;;24.24;44.95;96997.75;5007433;28;20202;-66
2023/06/11 11:11:34;;;;;;;4.73;4.43;;;;;;;24.41;44.50;97011.75;5041377;28;20207;-69
2023/06/11 11:14:04;;;;;;;4.63;4.27;;;;;;;24.71;44.09;97003.75;5047140;28;20556;-69
2023/06/11 11:16:32;;;;;;;5.23;4.67;;;;;;;24.81;43.84;97013.75;5048149;28;20252;-67
2023/06/11 11:18:59;;;;;;;4.97;4.40;;;;;;;24.77;43.45;97018.09;5019579;28;20237;-67
2023/06/11 11:21:28;;;;;;;5.13;4.73;;;;;;;24.92;42.66;97020.69;5052115;28;20191;-68
2023/06/11 11:23:56;;;;;;;4.77;4.47;;;;;;;25.02;42.60;97017.13;5005939;28;20348;-68
2023/06/11 11:26:24;;;;;;;4.80;4.50;;;;;;;25.28;39.43;97003.38;4977368;28;20737;-67
2023/06/11 11:28:52;;;;;;;4.97;4.57;;;;;;;25.47;40.01;97002.69;5050048;28;20198;-66
2023/06/11 11:31:22;;;;;;;4.77;4.37;;;;;;;25.66;39.44;96997.34;5024657;28;20612;-69